Poltava, Ukraine
Current Conditions -  °F | °C
As of 10:00 PM on Thursday 23 Oct 2014 (Local Time) from UKHH Reporting Station
Clear Clear  
Wind Chill: -8°   Ceiling: Unl
Heat Index: -2°   Visibility: 6mi
Dew Point: -8°   Wind: 16mph
Humidity: 64%   Direction: 50°NE
Pressure: 30.27"   Gusts: NA
Location:  49.58°N, 34.57°E
Report Text: UKHH 231900Z 05007MPS CAVOK M02/M08 Q1025 070///65 NOSIG
Loading
Personal Weather Stations






























Interactive Weather Map
Tropical Storm Tracking
New forecast layout! Learn more

10-Day Weather Forecast

Advertisements
Track Severe Weather on mobile